createdAt,value
2023-11-30T00:00:27.141Z,-0.90
2023-11-30T00:03:49.287Z,-0.89
2023-11-30T00:06:51.195Z,-0.88
2023-11-30T00:09:53.059Z,-0.88
2023-11-30T00:12:54.933Z,-0.85
2023-11-30T00:15:56.826Z,-0.84
2023-11-30T00:18:58.711Z,-0.85
2023-11-30T00:22:00.692Z,-0.85
2023-11-30T00:25:02.663Z,-0.84
2023-11-30T00:28:04.756Z,-0.82
2023-11-30T00:31:06.603Z,-0.81
2023-11-30T00:34:08.565Z,-0.79
2023-11-30T00:37:11.806Z,-0.79
2023-11-30T00:40:13.828Z,-0.77
2023-11-30T00:43:15.830Z,-0.76
2023-11-30T00:46:17.850Z,-0.75
2023-11-30T00:49:19.719Z,-0.75
2023-11-30T00:52:21.728Z,-0.75
2023-11-30T00:55:23.642Z,-0.76
2023-11-30T00:58:25.640Z,-0.75
2023-11-30T01:01:27.574Z,-0.75
2023-11-30T01:04:29.577Z,-0.74
2023-11-30T01:07:31.432Z,-0.72
2023-11-30T01:10:33.468Z,-0.71
2023-11-30T01:13:35.603Z,-0.69
2023-11-30T01:16:37.498Z,-0.70
2023-11-30T01:19:39.347Z,-0.70
2023-11-30T01:22:41.162Z,-0.71
2023-11-30T01:25:42.851Z,-0.69
2023-11-30T01:28:44.650Z,-0.68
2023-11-30T01:31:46.454Z,-0.67
2023-11-30T01:34:48.510Z,-0.66
2023-11-30T01:37:50.262Z,-0.66
2023-11-30T01:40:51.972Z,-0.66
2023-11-30T01:43:53.685Z,-0.65
2023-11-30T01:46:55.508Z,-0.65
2023-11-30T01:49:57.552Z,-0.65
2023-11-30T01:52:59.306Z,-0.66
2023-11-30T01:56:01.142Z,-0.65
2023-11-30T01:59:03.372Z,-0.66
2023-11-30T02:02:05.377Z,-0.65
2023-11-30T02:05:07.415Z,-0.63
2023-11-30T02:08:09.184Z,-0.63
2023-11-30T02:11:11.124Z,-0.61
2023-11-30T02:14:12.874Z,-0.60
2023-11-30T02:17:14.578Z,-0.59
2023-11-30T02:20:17.005Z,-0.57
2023-11-30T02:23:18.705Z,-0.55
2023-11-30T02:26:20.495Z,-0.54
2023-11-30T02:29:22.224Z,-0.53
2023-11-30T02:32:24.139Z,-0.52
2023-11-30T02:35:25.856Z,-0.51
2023-11-30T02:38:27.538Z,-0.49
2023-11-30T02:41:29.354Z,-0.48
2023-11-30T02:44:31.050Z,-0.47
2023-11-30T02:47:32.797Z,-0.45
2023-11-30T02:50:34.489Z,-0.44
2023-11-30T02:53:36.197Z,-0.44
2023-11-30T02:56:41.423Z,-0.42
2023-11-30T02:59:43.150Z,-0.40
2023-11-30T03:02:45.361Z,-0.39
2023-11-30T03:05:47.204Z,-0.39
2023-11-30T03:08:48.883Z,-0.37
2023-11-30T03:11:50.558Z,-0.37
2023-11-30T03:14:52.377Z,-0.34
2023-11-30T03:17:54.219Z,-0.31
2023-11-30T03:20:56.010Z,-0.29
2023-11-30T03:23:58.097Z,-0.28
2023-11-30T03:26:59.842Z,-0.25
2023-11-30T03:30:02.056Z,-0.23
2023-11-30T03:33:03.944Z,-0.22
2023-11-30T03:36:06.243Z,-0.21
2023-11-30T03:39:07.986Z,-0.21
2023-11-30T03:42:10.840Z,-0.20
2023-11-30T03:45:12.523Z,-0.21
2023-11-30T03:48:14.327Z,-0.21
2023-11-30T03:51:16.135Z,-0.22
2023-11-30T03:54:17.956Z,-0.21
2023-11-30T03:57:19.796Z,-0.21
2023-11-30T04:00:21.591Z,-0.21
2023-11-30T04:03:23.297Z,-0.20
2023-11-30T04:06:25.330Z,-0.19
2023-11-30T04:09:27.054Z,-0.19
2023-11-30T04:12:29.514Z,-0.20
2023-11-30T04:15:31.231Z,-0.19
2023-11-30T04:18:33.320Z,-0.18
2023-11-30T04:21:35.153Z,-0.19
2023-11-30T04:24:36.950Z,-0.18
2023-11-30T04:27:39.375Z,-0.19
2023-11-30T04:30:41.384Z,-0.18
2023-11-30T04:33:43.169Z,-0.18
2023-11-30T04:36:45.337Z,-0.20
2023-11-30T04:39:48.268Z,-0.19
2023-11-30T04:42:50.323Z,-0.21
2023-11-30T04:45:52.025Z,-0.21
2023-11-30T04:48:54.935Z,-0.19
2023-11-30T04:51:56.642Z,-0.17
2023-11-30T04:54:58.381Z,-0.16
2023-11-30T04:58:00.102Z,-0.17
2023-11-30T05:01:01.813Z,-0.18
2023-11-30T05:04:04.221Z,-0.19
2023-11-30T05:07:06.068Z,-0.18
2023-11-30T05:10:07.943Z,-0.20
2023-11-30T05:13:09.670Z,-0.19
2023-11-30T05:16:11.501Z,-0.20
2023-11-30T05:19:13.178Z,-0.20
2023-11-30T05:22:14.835Z,-0.19
2023-11-30T05:25:16.493Z,-0.19
2023-11-30T05:28:18.165Z,-0.18
2023-11-30T05:31:19.879Z,-0.19
2023-11-30T05:34:21.560Z,-0.18
2023-11-30T05:37:23.233Z,-0.18
2023-11-30T05:40:25.297Z,-0.16
2023-11-30T05:43:27.002Z,-0.15
2023-11-30T05:46:28.727Z,-0.15
2023-11-30T05:49:30.515Z,-0.14
2023-11-30T05:52:32.251Z,-0.13
2023-11-30T05:55:34.000Z,-0.12
2023-11-30T05:58:36.536Z,-0.11
2023-11-30T06:01:38.574Z,-0.10
2023-11-30T06:04:52.609Z,-0.08
2023-11-30T06:07:54.428Z,-0.06
2023-11-30T06:10:56.084Z,-0.03
2023-11-30T06:13:57.967Z,-0.01
2023-11-30T06:16:59.670Z,0.00
2023-11-30T06:20:03.921Z,0.02
2023-11-30T06:23:07.786Z,0.04
2023-11-30T06:26:09.531Z,0.09
2023-11-30T06:29:16.339Z,0.10
2023-11-30T06:32:18.053Z,0.12
2023-11-30T06:35:20.531Z,0.13
2023-11-30T06:38:22.241Z,0.16
2023-11-30T06:41:23.992Z,0.18
2023-11-30T06:44:26.414Z,0.20
2023-11-30T06:47:28.159Z,0.23
2023-11-30T06:50:29.845Z,0.26
2023-11-30T06:53:31.530Z,0.28
2023-11-30T06:56:33.396Z,0.32
2023-11-30T06:59:35.233Z,0.35
2023-11-30T07:02:37.228Z,0.37
2023-11-30T07:05:38.906Z,0.39
2023-11-30T07:08:40.722Z,0.40
2023-11-30T07:11:43.100Z,0.40
2023-11-30T07:14:50.959Z,0.41
2023-11-30T07:17:53.605Z,0.42
2023-11-30T07:20:57.357Z,0.45
2023-11-30T07:24:00.242Z,0.47
2023-11-30T07:27:02.043Z,0.49
2023-11-30T07:30:08.321Z,0.50
2023-11-30T07:33:10.351Z,0.53
2023-11-30T07:36:14.085Z,0.55
2023-11-30T07:39:16.121Z,0.56
2023-11-30T07:42:28.862Z,0.59
2023-11-30T07:45:34.931Z,0.57
2023-11-30T07:48:37.017Z,0.58
2023-11-30T07:51:38.752Z,0.59
2023-11-30T07:54:41.209Z,0.58
2023-11-30T07:57:43.079Z,0.59
2023-11-30T08:00:44.837Z,0.60
2023-11-30T08:03:47.638Z,0.61
2023-11-30T08:06:49.824Z,0.64
2023-11-30T08:09:56.326Z,0.66
2023-11-30T08:13:05.392Z,0.68
2023-11-30T08:16:09.878Z,0.72
2023-11-30T08:19:14.566Z,0.75
2023-11-30T08:22:16.475Z,0.78
2023-11-30T08:25:18.252Z,0.81
2023-11-30T08:28:20.918Z,0.85
2023-11-30T08:31:22.713Z,0.88
2023-11-30T08:34:24.521Z,0.92
2023-11-30T08:37:26.323Z,0.97
2023-11-30T08:40:28.236Z,1.02
2023-11-30T08:43:30.452Z,1.08
2023-11-30T08:46:32.151Z,1.16
2023-11-30T08:49:33.918Z,1.22
2023-11-30T08:52:36.004Z,1.29
2023-11-30T08:55:37.670Z,1.36
2023-11-30T08:58:39.441Z,1.44
2023-11-30T09:01:41.281Z,1.51
2023-11-30T09:04:43.192Z,1.59
2023-11-30T09:07:45.048Z,1.67
2023-11-30T09:10:47.638Z,1.77
2023-11-30T09:13:49.444Z,1.83
2023-11-30T09:16:51.247Z,1.89
2023-11-30T09:19:53.084Z,1.95
2023-11-30T09:22:54.883Z,2.03
2023-11-30T09:25:57.181Z,2.14
2023-11-30T09:28:59.126Z,2.26
2023-11-30T09:32:01.099Z,2.36
2023-11-30T09:35:04.477Z,2.40
2023-11-30T09:38:06.194Z,2.43
2023-11-30T09:41:14.125Z,2.43
2023-11-30T09:44:16.098Z,2.43
2023-11-30T09:47:18.297Z,2.47
2023-11-30T09:50:20.273Z,2.50
2023-11-30T09:53:22.163Z,2.54
2023-11-30T09:56:28.932Z,2.58
2023-11-30T09:59:31.136Z,2.63
2023-11-30T10:02:33.058Z,2.67
2023-11-30T10:05:34.998Z,2.70
2023-11-30T10:08:36.766Z,2.77
2023-11-30T10:11:39.120Z,2.86
2023-11-30T10:14:40.913Z,3.01
2023-11-30T10:17:47.084Z,3.19
2023-11-30T10:20:49.903Z,3.36
2023-11-30T10:23:52.200Z,3.54
2023-11-30T10:26:59.748Z,3.68
2023-11-30T10:30:04.825Z,3.78
2023-11-30T10:33:13.667Z,3.94
2023-11-30T10:36:18.971Z,4.18
2023-11-30T10:39:24.208Z,4.43
2023-11-30T10:42:27.607Z,4.67
2023-11-30T10:45:36.466Z,4.86
2023-11-30T10:48:39.665Z,5.04
2023-11-30T10:51:42.610Z,5.17
2023-11-30T10:54:55.297Z,5.27
2023-11-30T10:57:58.565Z,5.30
2023-11-30T11:01:01.077Z,5.35
2023-11-30T11:04:07.549Z,5.36
2023-11-30T11:07:15.618Z,5.40
2023-11-30T11:10:32.173Z,5.47
2023-11-30T11:13:35.327Z,5.54
2023-11-30T11:16:44.813Z,5.62
2023-11-30T11:19:47.270Z,5.61
2023-11-30T11:23:13.826Z,5.57
2023-11-30T11:26:16.103Z,5.55
2023-11-30T11:29:24.335Z,5.49
2023-11-30T11:32:35.167Z,5.47
2023-11-30T11:35:37.197Z,5.45
2023-11-30T11:38:39.129Z,5.40
2023-11-30T11:41:41.058Z,5.37
2023-11-30T11:44:42.870Z,5.38
2023-11-30T11:47:44.997Z,5.40
2023-11-30T11:50:56.951Z,5.42
2023-11-30T11:53:59.006Z,5.45
2023-11-30T11:57:02.201Z,5.50
2023-11-30T12:00:10.574Z,5.53
2023-11-30T12:03:12.630Z,5.54
2023-11-30T12:06:14.954Z,5.56
2023-11-30T12:09:16.832Z,5.59
2023-11-30T12:12:18.649Z,5.59
2023-11-30T12:15:20.447Z,5.56
2023-11-30T12:18:22.498Z,5.51
2023-11-30T12:21:25.064Z,5.40
2023-11-30T12:24:26.887Z,5.25
2023-11-30T12:27:29.662Z,5.13
2023-11-30T12:30:31.868Z,5.04
2023-11-30T12:33:33.731Z,4.96
2023-11-30T12:36:35.652Z,4.90
2023-11-30T12:39:38.017Z,4.87
2023-11-30T12:42:42.307Z,4.81
2023-11-30T12:45:44.402Z,4.76
2023-11-30T12:48:46.568Z,4.71
2023-11-30T12:51:49.391Z,4.66
2023-11-30T12:54:52.342Z,4.60
2023-11-30T12:57:54.328Z,4.53
2023-11-30T13:00:56.226Z,4.45
2023-11-30T13:03:59.288Z,4.38
2023-11-30T13:07:01.300Z,4.31
2023-11-30T13:10:03.285Z,4.22
2023-11-30T13:13:06.148Z,4.18
2023-11-30T13:16:08.408Z,4.08
2023-11-30T13:19:10.391Z,3.98
2023-11-30T13:22:12.233Z,3.88
2023-11-30T13:25:14.699Z,3.80
2023-11-30T13:28:16.795Z,3.73
2023-11-30T13:31:18.801Z,3.67
2023-11-30T13:34:20.556Z,3.61
2023-11-30T13:37:22.616Z,3.56
2023-11-30T13:40:25.467Z,3.50
2023-11-30T13:43:27.329Z,3.44
2023-11-30T13:46:29.087Z,3.38
2023-11-30T13:49:31.173Z,3.33
2023-11-30T13:52:32.961Z,3.27
2023-11-30T13:55:34.784Z,3.22
2023-11-30T13:58:36.594Z,3.15
2023-11-30T14:01:38.752Z,3.09
2023-11-30T14:04:40.626Z,3.02
2023-11-30T14:07:43.033Z,2.97
2023-11-30T14:10:44.873Z,2.90
2023-11-30T14:13:46.602Z,2.85
2023-11-30T14:16:48.987Z,2.80
2023-11-30T14:19:51.451Z,2.78
2023-11-30T14:22:53.941Z,2.73
2023-11-30T14:25:57.175Z,2.71
2023-11-30T14:28:58.877Z,2.69
2023-11-30T14:32:06.937Z,2.65
2023-11-30T14:35:10.257Z,2.60
2023-11-30T14:38:12.658Z,2.56
2023-11-30T14:41:16.796Z,2.50
2023-11-30T14:44:18.759Z,2.43
2023-11-30T14:47:25.925Z,2.36
2023-11-30T14:50:27.728Z,2.28
2023-11-30T14:53:29.937Z,2.21
2023-11-30T14:56:32.078Z,2.14
2023-11-30T14:59:33.981Z,2.06
2023-11-30T15:02:35.880Z,2.01
2023-11-30T15:05:38.112Z,1.96
2023-11-30T15:08:39.730Z,1.92
2023-11-30T15:11:43.715Z,1.88
2023-11-30T15:14:45.559Z,1.85
2023-11-30T15:17:49.930Z,1.82
2023-11-30T15:20:51.697Z,1.79
2023-11-30T15:23:53.516Z,1.77
2023-11-30T15:26:56.624Z,1.74
2023-11-30T15:29:59.726Z,1.70
2023-11-30T15:33:01.465Z,1.68
2023-11-30T15:36:05.530Z,1.66
2023-11-30T15:39:16.194Z,1.63
2023-11-30T15:42:17.961Z,1.62
2023-11-30T15:45:23.604Z,1.60
2023-11-30T15:48:25.562Z,1.58
2023-11-30T15:51:27.318Z,1.57
2023-11-30T15:54:28.953Z,1.56
2023-11-30T15:57:30.702Z,1.54
2023-11-30T16:00:33.161Z,1.54
2023-11-30T16:03:35.004Z,1.52
2023-11-30T16:06:37.056Z,1.50
2023-11-30T16:09:38.888Z,1.47
2023-11-30T16:12:40.626Z,1.44
2023-11-30T16:15:42.440Z,1.43
2023-11-30T16:18:44.397Z,1.43
2023-11-30T16:21:46.290Z,1.41
2023-11-30T16:24:48.179Z,1.42
2023-11-30T16:27:49.987Z,1.40
2023-11-30T16:30:51.720Z,1.40
2023-11-30T16:33:53.847Z,1.39
2023-11-30T16:36:56.153Z,1.39
2023-11-30T16:39:58.170Z,1.36
2023-11-30T16:43:00.527Z,1.34
2023-11-30T16:46:03.172Z,1.33
2023-11-30T16:49:05.581Z,1.31
2023-11-30T16:52:08.570Z,1.29
2023-11-30T16:55:12.723Z,1.29
2023-11-30T16:58:14.556Z,1.28
2023-11-30T17:01:46.185Z,1.27
2023-11-30T17:04:48.027Z,1.27
2023-11-30T17:07:50.073Z,1.27
2023-11-30T17:10:53.039Z,1.28
2023-11-30T17:13:54.856Z,1.27
2023-11-30T17:16:56.807Z,1.28
2023-11-30T17:19:58.994Z,1.27
2023-11-30T17:23:00.790Z,1.26
2023-11-30T17:26:02.964Z,1.25
2023-11-30T17:29:04.669Z,1.25
2023-11-30T17:32:07.351Z,1.22
2023-11-30T17:35:09.665Z,1.20
2023-11-30T17:38:11.431Z,1.19
2023-11-30T17:41:13.356Z,1.15
2023-11-30T17:44:15.171Z,1.11
2023-11-30T17:47:17.012Z,1.08
2023-11-30T17:50:18.962Z,1.05
2023-11-30T17:53:20.877Z,1.02
2023-11-30T17:56:22.737Z,1.00
2023-11-30T17:59:27.254Z,0.99
2023-11-30T18:02:29.150Z,0.98
2023-11-30T18:05:30.980Z,0.98
2023-11-30T18:08:33.281Z,0.96
2023-11-30T18:11:35.614Z,0.97
2023-11-30T18:14:38.273Z,0.96
2023-11-30T18:17:40.260Z,0.96
2023-11-30T18:20:41.964Z,0.95
2023-11-30T18:23:44.414Z,0.96
2023-11-30T18:26:48.368Z,0.97
2023-11-30T18:29:50.238Z,0.97
2023-11-30T18:32:52.014Z,0.96
2023-11-30T18:35:53.661Z,0.94
2023-11-30T18:38:55.442Z,0.93
2023-11-30T18:41:57.249Z,0.91
2023-11-30T18:44:58.978Z,0.90
2023-11-30T18:48:00.822Z,0.89
2023-11-30T18:51:03.113Z,0.86
2023-11-30T18:54:04.994Z,0.83
2023-11-30T18:57:07.076Z,0.79
2023-11-30T19:00:09.878Z,0.77
2023-11-30T19:03:11.740Z,0.76
2023-11-30T19:06:15.919Z,0.73
2023-11-30T19:09:18.223Z,0.69
2023-11-30T19:12:19.920Z,0.66
2023-11-30T19:15:25.168Z,0.63
2023-11-30T19:18:30.549Z,0.61
2023-11-30T19:21:32.556Z,0.58
2023-11-30T19:24:34.517Z,0.57
2023-11-30T19:27:36.339Z,0.56
2023-11-30T19:30:38.169Z,0.54
2023-11-30T19:33:40.275Z,0.52
2023-11-30T19:36:42.437Z,0.50
2023-11-30T19:39:44.326Z,0.48
2023-11-30T19:42:46.184Z,0.47
2023-11-30T19:45:47.994Z,0.47
2023-11-30T19:48:49.917Z,0.47
2023-11-30T19:51:52.501Z,0.46
2023-11-30T19:54:54.395Z,0.46
2023-11-30T19:57:56.176Z,0.44
2023-11-30T20:00:57.954Z,0.42
2023-11-30T20:03:59.964Z,0.43
2023-11-30T20:07:01.872Z,0.43
2023-11-30T20:10:04.121Z,0.43
2023-11-30T20:13:05.824Z,0.43
2023-11-30T20:16:11.169Z,0.43
2023-11-30T20:19:12.927Z,0.41
2023-11-30T20:22:14.814Z,0.41
2023-11-30T20:25:17.381Z,0.41
2023-11-30T20:28:19.387Z,0.41
2023-11-30T20:31:21.163Z,0.41
2023-11-30T20:34:23.239Z,0.41
2023-11-30T20:37:25.432Z,0.41
2023-11-30T20:40:26.990Z,0.41
2023-11-30T20:43:29.172Z,0.41
2023-11-30T20:46:30.772Z,0.39
2023-11-30T20:49:32.517Z,0.40
2023-11-30T20:52:34.714Z,0.40
2023-11-30T20:55:36.750Z,0.41
2023-11-30T20:58:39.460Z,0.41
2023-11-30T21:01:41.633Z,0.41
2023-11-30T21:04:43.515Z,0.42
2023-11-30T21:07:45.604Z,0.44
2023-11-30T21:10:47.440Z,0.45
2023-11-30T21:13:49.152Z,0.45
2023-11-30T21:16:51.257Z,0.45
2023-11-30T21:19:52.878Z,0.46
2023-11-30T21:22:57.460Z,0.44
2023-11-30T21:26:09.994Z,0.46
2023-11-30T21:29:12.553Z,0.44
2023-11-30T21:32:14.714Z,0.46
2023-11-30T21:35:16.611Z,0.47
2023-11-30T21:38:18.570Z,0.47
2023-11-30T21:41:20.929Z,0.47
2023-11-30T21:44:22.776Z,0.47
2023-11-30T21:47:24.502Z,0.47
2023-11-30T21:50:27.159Z,0.48
2023-11-30T21:53:32.624Z,0.48
2023-11-30T21:56:34.425Z,0.48
2023-11-30T21:59:37.258Z,0.48
2023-11-30T22:02:40.621Z,0.48
2023-11-30T22:05:42.728Z,0.48
2023-11-30T22:08:45.912Z,0.48
2023-11-30T22:11:47.574Z,0.48
2023-11-30T22:14:49.275Z,0.49
2023-11-30T22:17:51.116Z,0.50
2023-11-30T22:20:53.137Z,0.50
2023-11-30T22:23:55.472Z,0.50
2023-11-30T22:26:57.223Z,0.52
2023-11-30T22:29:58.898Z,0.53
2023-11-30T22:33:00.653Z,0.54
2023-11-30T22:36:02.410Z,0.53
2023-11-30T22:39:04.159Z,0.53
2023-11-30T22:42:06.440Z,0.53
2023-11-30T22:45:08.243Z,0.54
2023-11-30T22:48:10.054Z,0.54
2023-11-30T22:51:12.834Z,0.53
2023-11-30T22:54:14.802Z,0.53
2023-11-30T22:57:17.306Z,0.54
2023-11-30T23:00:24.162Z,0.55
2023-11-30T23:03:26.159Z,0.56
2023-11-30T23:06:28.146Z,0.56
2023-11-30T23:09:29.981Z,0.56
2023-11-30T23:12:31.856Z,0.55
2023-11-30T23:15:33.606Z,0.54
2023-11-30T23:18:35.582Z,0.54
2023-11-30T23:21:37.532Z,0.53
2023-11-30T23:24:42.211Z,0.52
2023-11-30T23:27:44.015Z,0.52
2023-11-30T23:30:45.745Z,0.52
2023-11-30T23:33:47.669Z,0.52
2023-11-30T23:36:49.390Z,0.53
2023-11-30T23:39:51.401Z,0.53
2023-11-30T23:42:53.487Z,0.52
2023-11-30T23:45:55.196Z,0.51
2023-11-30T23:48:57.755Z,0.50
2023-11-30T23:51:59.411Z,0.50
2023-11-30T23:55:01.756Z,0.49
2023-11-30T23:58:03.642Z,0.48
